Time;durP1;ratioP1;P1;durP2;ratioP2;P2;SDS_P1;SDS_P2;PMS_P1;PMS_P2;Temp;Humidity;BMP_temperature;BMP_pressure;BME280_temperature;BME280_humidity;BME280_pressure;Samples;Min_cycle;Max_cycle;Signal;HPM_P1;HPM_P2
2022/12/05 00:00:36;;;;;;;39.83;14.80;;;;;;;;;;6211095;23;20004;-92
2022/12/05 00:03:47;;;;;;;40.65;15.88;;;;;;;;;;6212067;23;20035;-92
2022/12/05 00:06:13;;;;;;;35.33;14.60;;;;;;;;;;6208685;23;20088;-92
2022/12/05 00:08:40;;;;;;;35.97;14.38;;;;;;;;;;6187468;23;20016;-92
2022/12/05 00:11:26;;;;;;;41.05;15.60;;;;;;;;;;6210287;23;20009;-92
2022/12/05 00:13:53;;;;;;;34.13;14.98;;;;;;;;;;6211397;23;20012;-92
2022/12/05 00:16:32;;;;;;;41.95;16.60;;;;;;;;;;6211353;23;20012;-92
2022/12/05 00:19:04;;;;;;;41.78;15.60;;;;;;;;;;6210455;23;20400;-92
2022/12/05 00:21:48;;;;;;;40.63;16.42;;;;;;;;;;6187531;23;20035;-92
2022/12/05 00:24:20;;;;;;;39.35;14.95;;;;;;;;;;6212339;23;20251;-92
2022/12/05 00:26:46;;;;;;;37.72;15.63;;;;;;;;;;6211360;23;20004;-92
2022/12/05 00:29:36;;;;;;;37.67;16.00;;;;;;;;;;6187433;23;20064;-92
2022/12/05 00:32:18;;;;;;;36.90;16.83;;;;;;;;;;6206096;22;20024;-92
2022/12/05 00:34:44;;;;;;;38.78;16.10;;;;;;;;;;6183154;23;20556;-92
2022/12/05 00:37:19;;;;;;;42.17;16.00;;;;;;;;;;6181780;23;20040;-92
2022/12/05 00:40:27;;;;;;;55.67;18.17;;;;;;;;;;6205484;23;20012;-93
2022/12/05 00:42:46;;;;;;;37.88;16.17;;;;;;;;;;6207058;23;20035;-93
2022/12/05 00:45:15;;;;;;;46.40;17.40;;;;;;;;;;6206942;23;20036;-92
2022/12/05 00:47:57;;;;;;;50.45;18.33;;;;;;;;;;6205667;23;20432;-92
2022/12/05 00:50:31;;;;;;;40.55;15.98;;;;;;;;;;6184277;23;20393;-92
2022/12/05 00:53:20;;;;;;;50.47;18.00;;;;;;;;;;6185499;23;20020;-92
2022/12/05 00:55:51;;;;;;;44.03;17.45;;;;;;;;;;6206089;23;20012;-92
2022/12/05 00:58:35;;;;;;;41.70;17.27;;;;;;;;;;6206925;23;20005;-93
2022/12/05 01:01:06;;;;;;;49.15;18.42;;;;;;;;;;6207187;23;20004;-92
2022/12/05 01:03:32;;;;;;;45.10;17.33;;;;;;;;;;6209205;23;20035;-92
2022/12/05 01:06:09;;;;;;;45.58;15.95;;;;;;;;;;6183749;23;20012;-92
2022/12/05 01:08:38;;;;;;;42.13;16.08;;;;;;;;;;6208817;23;20029;-92
2022/12/05 01:11:07;;;;;;;38.22;15.50;;;;;;;;;;6183969;23;20016;-92
2022/12/05 01:13:34;;;;;;;38.75;15.80;;;;;;;;;;6208842;23;20004;-91
2022/12/05 01:16:03;;;;;;;34.38;14.07;;;;;;;;;;6208818;23;20012;-92
2022/12/05 01:18:29;;;;;;;37.17;15.20;;;;;;;;;;6184719;23;20096;-92
2022/12/05 01:20:58;;;;;;;34.17;14.43;;;;;;;;;;6207434;23;20008;-92
2022/12/05 01:23:27;;;;;;;31.55;13.15;;;;;;;;;;6209989;23;20032;-92
2022/12/05 01:26:16;;;;;;;35.55;13.20;;;;;;;;;;6185200;23;20085;-92
2022/12/05 01:28:43;;;;;;;25.60;11.25;;;;;;;;;;6208724;23;20348;-92
2022/12/05 01:31:12;;;;;;;25.13;11.00;;;;;;;;;;6210379;22;20095;-92
2022/12/05 01:33:38;;;;;;;24.10;11.18;;;;;;;;;;6209977;23;20008;-92
2022/12/05 01:36:18;;;;;;;23.70;11.43;;;;;;;;;;6183999;23;20082;-93
2022/12/05 01:38:44;;;;;;;26.13;10.65;;;;;;;;;;6209589;23;20424;-92
2022/12/05 01:41:12;;;;;;;23.17;10.50;;;;;;;;;;6182975;23;20008;-92
2022/12/05 01:43:57;;;;;;;19.73;9.60;;;;;;;;;;6209109;23;20024;-93
2022/12/05 01:46:27;;;;;;;19.33;9.35;;;;;;;;;;6210075;23;20067;-92
2022/12/05 01:49:16;;;;;;;21.45;10.18;;;;;;;;;;6208001;23;20786;-92
2022/12/05 01:54:56;;;;;;;21.00;10.27;;;;;;;;;;6210525;23;20102;-92
2022/12/05 01:57:56;;;;;;;;;;;;;;;;;;;;;
2022/12/05 02:00:42;;;;;;;23.45;9.85;;;;;;;;;;6205229;23;20087;-92
2022/12/05 02:03:10;;;;;;;22.65;10.45;;;;;;;;;;6185604;23;20087;-92
2022/12/05 02:05:46;;;;;;;22.58;10.25;;;;;;;;;;6207493;23;20748;-92
2022/12/05 02:08:24;;;;;;;19.25;9.43;;;;;;;;;;6209439;23;20012;-92
2022/12/05 02:10:53;;;;;;;19.35;9.15;;;;;;;;;;6209882;23;20316;-92
2022/12/05 02:13:38;;;;;;;17.88;8.75;;;;;;;;;;6208990;23;20040;-92
2022/12/05 02:19:35;;;;;;;21.23;8.43;;;;;;;;;;6209467;23;20100;-92
2022/12/05 02:22:04;;;;;;;22.42;8.77;;;;;;;;;;6209694;23;20421;-92
2022/12/05 02:24:49;;;;;;;25.45;8.90;;;;;;;;;;6207529;23;20491;-92
2022/12/05 02:27:24;;;;;;;23.67;9.40;;;;;;;;;;6208682;23;20015;-92
2022/12/05 02:29:55;;;;;;;22.48;9.15;;;;;;;;;;6208216;23;20091;-93
2022/12/05 02:32:31;;;;;;;17.52;8.70;;;;;;;;;;6208472;22;20024;-92
2022/12/05 02:35:03;;;;;;;17.35;7.13;;;;;;;;;;6208040;23;20504;-92
2022/12/05 02:37:45;;;;;;;17.95;8.38;;;;;;;;;;6208962;23;20013;-92
2022/12/05 02:40:33;;;;;;;20.08;7.68;;;;;;;;;;6208573;23;20008;-92
2022/12/05 02:43:12;;;;;;;11.60;6.72;;;;;;;;;;6204069;23;20012;-92
2022/12/05 02:46:01;;;;;;;17.38;8.25;;;;;;;;;;6209050;23;20004;-92
2022/12/05 02:48:30;;;;;;;17.80;7.80;;;;;;;;;;6189344;23;20035;-92
2022/12/05 02:51:00;;;;;;;18.58;7.63;;;;;;;;;;6206961;23;20478;-93
2022/12/05 02:53:43;;;;;;;17.75;7.60;;;;;;;;;;6184556;23;20471;-92
2022/12/05 02:56:10;;;;;;;18.75;7.25;;;;;;;;;;6184677;23;20016;-92
2022/12/05 02:58:41;;;;;;;18.60;7.85;;;;;;;;;;6208472;23;20518;-92
2022/12/05 03:01:08;;;;;;;17.92;7.80;;;;;;;;;;6209016;23;20319;-92
2022/12/05 03:03:34;;;;;;;15.02;7.22;;;;;;;;;;6183740;23;20012;-92
2022/12/05 03:06:28;;;;;;;;;;;;;;;;;;;;;
2022/12/05 03:09:06;;;;;;;15.07;6.43;;;;;;;;;;6208096;23;20087;-92
2022/12/05 03:11:44;;;;;;;16.98;7.32;;;;;;;;;;6207643;23;20347;-92
2022/12/05 03:14:20;;;;;;;16.88;7.65;;;;;;;;;;6208831;23;20047;-93
2022/12/05 03:16:49;;;;;;;13.52;6.85;;;;;;;;;;6207426;23;20724;-92
2022/12/05 03:19:18;;;;;;;12.90;5.97;;;;;;;;;;6203104;23;20015;-92
2022/12/05 03:22:06;;;;;;;15.65;7.47;;;;;;;;;;6209344;23;20008;-92
2022/12/05 03:24:34;;;;;;;16.08;7.43;;;;;;;;;;6207720;23;20009;-92
2022/12/05 03:27:12;;;;;;;17.85;7.88;;;;;;;;;;6209907;23;20009;-93
2022/12/05 03:30:04;;;;;;;12.65;6.95;;;;;;;;;;6209286;23;20008;-92
2022/12/05 03:32:31;;;;;;;17.27;7.18;;;;;;;;;;6205817;22;20127;-92
2022/12/05 03:34:57;;;;;;;20.27;8.60;;;;;;;;;;6207157;23;20015;-93
2022/12/05 03:37:30;;;;;;;17.08;7.38;;;;;;;;;;6207919;23;20396;-92
2022/12/05 03:40:02;;;;;;;12.90;6.57;;;;;;;;;;6209614;23;20058;-93
2022/12/05 03:42:32;;;;;;;15.88;7.13;;;;;;;;;;6208579;23;20015;-93
2022/12/05 03:45:11;;;;;;;19.25;7.32;;;;;;;;;;6207802;23;20081;-93
2022/12/05 03:47:50;;;;;;;14.88;6.70;;;;;;;;;;6207038;23;20004;-93
2022/12/05 03:50:24;;;;;;;20.67;7.82;;;;;;;;;;6205938;23;20008;-93
2022/12/05 03:52:53;;;;;;;14.73;7.45;;;;;;;;;;6207409;23;20004;-93
2022/12/05 03:55:28;;;;;;;17.02;7.20;;;;;;;;;;6208374;23;20036;-92
2022/12/05 03:58:03;;;;;;;19.30;7.97;;;;;;;;;;6206305;23;20099;-93
2022/12/05 04:00:31;;;;;;;16.85;6.97;;;;;;;;;;6207302;23;20255;-92
2022/12/05 04:03:02;;;;;;;19.02;8.27;;;;;;;;;;6207339;23;20417;-92
2022/12/05 04:05:32;;;;;;;24.85;7.45;;;;;;;;;;6206560;23;20523;-93
2022/12/05 04:08:01;;;;;;;18.33;8.30;;;;;;;;;;6207558;23;20015;-92
2022/12/05 04:10:29;;;;;;;20.33;7.60;;;;;;;;;;6182266;23;20127;-92
2022/12/05 04:12:58;;;;;;;14.75;7.47;;;;;;;;;;6208903;23;20776;-93
2022/12/05 04:17:02;;;;;;;17.65;8.55;;;;;;;;;;6207176;23;20059;-93
2022/12/05 04:18:19;;;;;;;18.63;8.05;;;;;;;;;;6207028;23;20008;-92
2022/12/05 04:23:34;;;;;;;15.52;7.53;;;;;;;;;;6208256;23;20023;-93
2022/12/05 04:26:00;;;;;;;14.35;6.97;;;;;;;;;;6210542;23;20008;-92
2022/12/05 04:28:26;;;;;;;21.50;8.77;;;;;;;;;;6210035;23;20055;-93
2022/12/05 04:31:06;;;;;;;19.05;7.80;;;;;;;;;;6215042;22;20020;-92
2022/12/05 04:33:55;;;;;;;14.10;7.20;;;;;;;;;;6215028;23;20004;-92
2022/12/05 04:36:37;;;;;;;20.75;8.05;;;;;;;;;;6195531;23;20008;-92
2022/12/05 04:39:23;;;;;;;25.98;7.65;;;;;;;;;;6214806;23;20008;-92
2022/12/05 04:41:49;;;;;;;;;;;;;;;;;;6214509;23;20408;-93
2022/12/05 04:44:19;;;;;;;17.65;6.88;;;;;;;;;;6215351;23;19907;-92
2022/12/05 04:46:46;;;;;;;20.58;7.57;;;;;;;;;;6213350;23;20059;-92
2022/12/05 04:49:15;;;;;;;21.55;7.75;;;;;;;;;;6214377;23;20046;-93
2022/12/05 04:51:42;;;;;;;20.77;7.85;;;;;;;;;;6215636;23;20071;-92
2022/12/05 04:54:13;;;;;;;22.23;8.23;;;;;;;;;;6214038;23;20008;-92
2022/12/05 04:56:41;;;;;;;18.63;7.63;;;;;;;;;;6214480;23;20004;-93
2022/12/05 04:59:07;;;;;;;14.43;6.72;;;;;;;;;;6212857;23;20456;-93
2022/12/05 05:01:46;;;;;;;18.25;7.68;;;;;;;;;;6190817;23;20011;-93
2022/12/05 05:04:31;;;;;;;17.63;7.90;;;;;;;;;;6213429;23;20454;-93
2022/12/05 05:06:57;;;;;;;16.67;7.28;;;;;;;;;;6215424;23;20015;-92
2022/12/05 05:09:23;;;;;;;20.63;7.47;;;;;;;;;;6189999;23;20432;-92
2022/12/05 05:11:49;;;;;;;28.83;8.88;;;;;;;;;;6214444;23;20012;-92
2022/12/05 05:14:15;;;;;;;19.92;7.57;;;;;;;;;;6213886;23;20015;-93
2022/12/05 05:16:48;;;;;;;14.00;6.63;;;;;;;;;;6189332;23;20436;-92
2022/12/05 05:19:14;;;;;;;20.83;7.35;;;;;;;;;;6215026;23;20011;-92
2022/12/05 05:21:41;;;;;;;19.73;8.02;;;;;;;;;;6189324;23;20016;-92
2022/12/05 05:24:08;;;;;;;23.75;7.05;;;;;;;;;;6214702;23;20008;-91
2022/12/05 05:26:41;;;;;;;20.80;7.80;;;;;;;;;;6213493;23;20495;-92
2022/12/05 05:29:10;;;;;;;22.67;7.78;;;;;;;;;;6214764;23;20470;-92
2022/12/05 05:31:37;;;;;;;13.93;6.70;;;;;;;;;;6209973;22;20554;-92
2022/12/05 05:34:03;;;;;;;19.42;7.50;;;;;;;;;;6208736;23;20036;-91
2022/12/05 05:36:36;;;;;;;23.83;7.20;;;;;;;;;;6183697;23;20063;-92
2022/12/05 05:39:04;;;;;;;16.27;7.78;;;;;;;;;;6209551;23;20043;-92
2022/12/05 05:41:35;;;;;;;22.23;7.13;;;;;;;;;;6209095;23;20507;-92
2022/12/05 05:44:02;;;;;;;19.60;7.32;;;;;;;;;;6208072;23;20059;-92
2022/12/05 05:46:30;;;;;;;15.85;6.30;;;;;;;;;;6208969;23;20004;-92
2022/12/05 05:48:57;;;;;;;16.77;7.68;;;;;;;;;;6208519;23;20031;-92
2022/12/05 05:51:26;;;;;;;17.10;6.40;;;;;;;;;;6184017;23;20341;-92
2022/12/05 05:53:53;;;;;;;16.27;7.10;;;;;;;;;;6207811;23;20008;-93
2022/12/05 05:56:19;;;;;;;14.13;7.72;;;;;;;;;;6183902;23;20417;-92
2022/12/05 05:58:48;;;;;;;16.63;7.15;;;;;;;;;;6183898;23;20019;-92
2022/12/05 06:01:16;;;;;;;17.83;7.88;;;;;;;;;;6208992;23;20637;-92
2022/12/05 06:03:42;;;;;;;24.88;7.05;;;;;;;;;;6208015;23;20009;-91
2022/12/05 06:06:10;;;;;;;19.02;7.85;;;;;;;;;;6184485;23;20019;-92
2022/12/05 06:08:38;;;;;;;19.02;7.97;;;;;;;;;;6208530;23;20016;-92
2022/12/05 06:11:05;;;;;;;18.05;7.55;;;;;;;;;;6208700;23;20009;-92
2022/12/05 06:13:31;;;;;;;17.15;6.95;;;;;;;;;;6209261;23;20011;-92
2022/12/05 06:15:57;;;;;;;17.17;6.95;;;;;;;;;;6209517;23;20455;-92
2022/12/05 06:18:23;;;;;;;19.85;7.43;;;;;;;;;;6207458;23;20426;-91
2022/12/05 06:20:57;;;;;;;15.73;6.28;;;;;;;;;;6209887;23;20455;-91
2022/12/05 06:23:24;;;;;;;23.40;7.15;;;;;;;;;;6207399;23;20441;-91
2022/12/05 06:25:54;;;;;;;27.90;8.77;;;;;;;;;;6184200;23;20015;-92
2022/12/05 06:28:21;;;;;;;20.42;7.68;;;;;;;;;;6208634;23;20005;-92
2022/12/05 06:30:47;;;;;;;18.50;6.68;;;;;;;;;;6211401;22;20314;-92
2022/12/05 06:33:14;;;;;;;20.50;7.05;;;;;;;;;;6188123;23;20012;-92
2022/12/05 06:35:40;;;;;;;23.17;8.10;;;;;;;;;;6187724;23;20001;-92
2022/12/05 06:38:06;;;;;;;22.48;7.82;;;;;;;;;;6186196;23;20012;-93
2022/12/05 06:40:33;;;;;;;25.65;7.68;;;;;;;;;;6213284;23;20425;-91
2022/12/05 06:42:59;;;;;;;18.77;7.60;;;;;;;;;;6212743;23;20428;-91
2022/12/05 06:45:25;;;;;;;19.85;7.63;;;;;;;;;;6214061;23;20482;-91
2022/12/05 06:47:54;;;;;;;27.92;7.90;;;;;;;;;;6211947;23;20306;-92
2022/12/05 06:50:20;;;;;;;19.98;7.28;;;;;;;;;;6213154;23;20340;-91
2022/12/05 06:52:46;;;;;;;23.25;6.80;;;;;;;;;;6217727;23;20028;-91
2022/12/05 06:55:12;;;;;;;20.45;7.45;;;;;;;;;;6187919;23;20482;-91
2022/12/05 06:57:38;;;;;;;21.98;7.72;;;;;;;;;;6187565;23;20016;-91
2022/12/05 07:02:50;;;;;;;22.35;8.63;;;;;;;;;;6239500;23;20080;-92
2022/12/05 07:05:16;;;;;;;27.55;8.05;;;;;;;;;;6188878;23;20020;-92
2022/12/05 07:07:43;;;;;;;31.58;9.40;;;;;;;;;;6213159;23;20027;-92
2022/12/05 07:10:11;;;;;;;27.67;8.73;;;;;;;;;;6240464;23;20428;-92
2022/12/05 07:12:38;;;;;;;23.42;8.05;;;;;;;;;;6211869;23;20012;-91
2022/12/05 07:15:04;;;;;;;30.80;7.97;;;;;;;;;;6188070;23;20016;-92
2022/12/05 07:17:30;;;;;;;30.48;7.25;;;;;;;;;;6187937;23;20023;-92
2022/12/05 07:19:56;;;;;;;21.88;8.73;;;;;;;;;;6212888;23;20036;-92
2022/12/05 07:22:23;;;;;;;30.75;8.40;;;;;;;;;;6211920;23;20448;-93
2022/12/05 07:24:51;;;;;;;24.35;8.50;;;;;;;;;;6212088;23;20008;-91
2022/12/05 07:27:20;;;;;;;26.83;6.75;;;;;;;;;;6212081;23;20051;-91
2022/12/05 07:29:46;;;;;;;26.42;8.38;;;;;;;;;;6213668;23;20019;-91
2022/12/05 07:32:12;;;;;;;20.02;7.80;;;;;;;;;;6183467;22;20035;-92
2022/12/05 07:34:38;;;;;;;22.42;9.32;;;;;;;;;;6183064;23;20034;-91
2022/12/05 07:37:04;;;;;;;18.67;6.80;;;;;;;;;;6208128;23;20040;-92
2022/12/05 07:39:30;;;;;;;25.90;8.48;;;;;;;;;;6207138;23;20480;-91
2022/12/05 07:41:56;;;;;;;27.05;9.20;;;;;;;;;;6184056;23;20044;-92
2022/12/05 07:44:22;;;;;;;21.35;7.80;;;;;;;;;;6183196;23;20031;-91
2022/12/05 07:46:49;;;;;;;24.02;7.93;;;;;;;;;;6184171;23;20012;-92
2022/12/05 07:49:18;;;;;;;34.70;8.15;;;;;;;;;;6181874;23;20016;-92
2022/12/05 07:51:44;;;;;;;24.80;8.38;;;;;;;;;;6184321;23;20017;-92
2022/12/05 07:54:10;;;;;;;24.17;8.13;;;;;;;;;;6181942;23;20013;-92
2022/12/05 07:56:36;;;;;;;25.92;8.20;;;;;;;;;;6181637;23;20023;-92
2022/12/05 07:59:02;;;;;;;24.10;7.95;;;;;;;;;;6206319;23;20625;-92
2022/12/05 08:01:29;;;;;;;17.02;6.82;;;;;;;;;;6182490;23;20464;-93
2022/12/05 08:03:56;;;;;;;24.77;8.60;;;;;;;;;;6206550;23;20036;-91
2022/12/05 08:06:23;;;;;;;23.52;7.95;;;;;;;;;;6183373;23;20009;-92
2022/12/05 08:08:50;;;;;;;22.55;7.28;;;;;;;;;;6205995;23;20103;-92
2022/12/05 08:11:36;;;;;;;19.10;7.68;;;;;;;;;;6208192;23;20061;-92
2022/12/05 08:14:02;;;;;;;;;;;;;;;;;;6207035;23;20333;-91
2022/12/05 08:16:29;;;;;;;23.13;7.80;;;;;;;;;;6207791;23;20322;-92
2022/12/05 08:19:03;;;;;;;22.33;8.00;;;;;;;;;;6207151;23;20350;-92
2022/12/05 08:21:29;;;;;;;27.20;8.15;;;;;;;;;;6207278;23;20015;-92
2022/12/05 08:23:56;;;;;;;28.58;8.23;;;;;;;;;;6206690;23;20001;-92
2022/12/05 08:26:26;;;;;;;21.70;6.82;;;;;;;;;;6206281;23;20359;-92
2022/12/05 08:28:57;;;;;;;20.60;7.30;;;;;;;;;;6207599;23;20008;-92
2022/12/05 08:31:36;;;;;;;23.58;7.35;;;;;;;;;;6211139;22;20040;-92
2022/12/05 08:34:02;;;;;;;16.50;7.03;;;;;;;;;;6187785;23;20020;-92
2022/12/05 08:36:31;;;;;;;23.75;6.60;;;;;;;;;;6187269;23;20008;-92
2022/12/05 08:38:58;;;;;;;22.20;7.22;;;;;;;;;;6211911;23;20012;-91
2022/12/05 08:41:27;;;;;;;15.43;6.63;;;;;;;;;;6212649;23;20010;-92
2022/12/05 08:43:54;;;;;;;20.30;7.07;;;;;;;;;;6213742;23;20004;-92
2022/12/05 08:46:20;;;;;;;37.15;9.45;;;;;;;;;;6187051;23;20463;-93
2022/12/05 08:48:46;;;;;;;20.88;7.18;;;;;;;;;;6213095;23;20450;-93
2022/12/05 08:51:12;;;;;;;19.70;7.65;;;;;;;;;;6212304;23;20495;-93
2022/12/05 08:53:39;;;;;;;17.73;7.25;;;;;;;;;;6186450;23;20016;-92
2022/12/05 08:56:07;;;;;;;26.48;7.55;;;;;;;;;;6188885;23;20095;-93
2022/12/05 08:58:33;;;;;;;21.40;8.02;;;;;;;;;;6211784;23;20016;-92
2022/12/05 09:01:10;;;;;;;24.05;7.80;;;;;;;;;;6187710;23;20432;-92
2022/12/05 09:03:37;;;;;;;19.80;7.85;;;;;;;;;;6213091;23;20008;-93
2022/12/05 09:06:07;;;;;;;26.65;8.30;;;;;;;;;;6211822;23;20039;-92
2022/12/05 09:08:33;;;;;;;20.23;7.28;;;;;;;;;;6211502;23;20036;-92
2022/12/05 09:10:59;;;;;;;24.35;7.80;;;;;;;;;;6190123;23;20008;-92
2022/12/05 09:13:25;;;;;;;20.27;6.40;;;;;;;;;;6188699;23;20012;-92
2022/12/05 09:15:51;;;;;;;26.38;8.27;;;;;;;;;;6189534;23;20071;-93
2022/12/05 09:18:17;;;;;;;20.73;8.23;;;;;;;;;;6189760;23;20020;-93
2022/12/05 09:20:46;;;;;;;23.88;8.48;;;;;;;;;;6189171;23;20015;-94
2022/12/05 09:23:12;;;;;;;16.13;7.38;;;;;;;;;;6189132;23;20432;-92
2022/12/05 09:25:44;;;;;;;24.75;8.90;;;;;;;;;;6189650;23;20433;-92
2022/12/05 09:28:10;;;;;;;24.67;8.32;;;;;;;;;;6212912;23;20395;-92
2022/12/05 09:30:36;;;;;;;25.27;8.10;;;;;;;;;;6189684;23;20202;-91
2022/12/05 09:33:02;;;;;;;21.23;7.45;;;;;;;;;;6184725;22;20062;-93
2022/12/05 09:35:28;;;;;;;21.08;7.72;;;;;;;;;;6208951;23;20433;-92
2022/12/05 09:37:55;;;;;;;23.20;9.45;;;;;;;;;;6209807;23;20008;-94
2022/12/05 09:40:22;;;;;;;25.48;9.65;;;;;;;;;;6184496;23;20008;-94
2022/12/05 09:43:17;;;;;;;27.25;8.60;;;;;;;;;;6208430;23;20433;-92
2022/12/05 09:45:45;;;;;;;28.70;9.98;;;;;;;;;;6183902;23;20503;-92
2022/12/05 09:48:16;;;;;;;31.08;8.55;;;;;;;;;;6208702;23;20441;-93
2022/12/05 09:50:47;;;;;;;23.90;9.25;;;;;;;;;;6208331;23;20020;-92
2022/12/05 09:53:16;;;;;;;29.15;7.90;;;;;;;;;;6211223;23;20001;-92
2022/12/05 09:55:45;;;;;;;21.92;8.38;;;;;;;;;;6207607;23;20009;-92
2022/12/05 09:58:19;;;;;;;24.25;8.32;;;;;;;;;;6208889;23;20008;-92
2022/12/05 10:00:45;;;;;;;22.55;8.45;;;;;;;;;;6207365;23;20100;-92
2022/12/05 10:03:31;;;;;;;19.42;8.48;;;;;;;;;;6185576;23;20337;-92
2022/12/05 10:06:05;;;;;;;19.50;8.27;;;;;;;;;;6207111;23;20005;-92
2022/12/05 10:08:36;;;;;;;28.02;9.32;;;;;;;;;;6208574;23;20015;-92
2022/12/05 10:11:04;;;;;;;21.65;8.80;;;;;;;;;;6208894;23;20091;-91
2022/12/05 10:13:31;;;;;;;28.27;8.55;;;;;;;;;;6207973;23;20008;-92
2022/12/05 10:16:00;;;;;;;20.55;8.07;;;;;;;;;;6208720;23;20000;-92
2022/12/05 10:18:33;;;;;;;22.65;8.45;;;;;;;;;;6207482;23;20374;-92
2022/12/05 10:21:08;;;;;;;22.15;8.07;;;;;;;;;;6206320;23;20004;-92
2022/12/05 10:23:37;;;;;;;24.90;8.23;;;;;;;;;;6208780;23;20009;-92
2022/12/05 10:26:05;;;;;;;23.50;8.50;;;;;;;;;;6208934;23;20232;-92
2022/12/05 10:28:38;;;;;;;20.17;8.73;;;;;;;;;;6209022;23;20092;-92
2022/12/05 10:31:08;;;;;;;16.60;7.95;;;;;;;;;;6208988;23;20046;-92
2022/12/05 10:33:38;;;;;;;27.52;7.72;;;;;;;;;;6213562;22;20800;-92
2022/12/05 10:36:13;;;;;;;23.02;7.90;;;;;;;;;;6210545;23;20035;-92
2022/12/05 10:38:40;;;;;;;;;;;;;;;;;;6209847;23;20028;-91
2022/12/05 10:41:07;;;;;;;18.52;7.72;;;;;;;;;;6208572;23;19900;-92
2022/12/05 10:43:36;;;;;;;22.73;7.75;;;;;;;;;;6207523;23;20013;-92
2022/12/05 10:46:02;;;;;;;20.00;7.10;;;;;;;;;;6209270;23;20201;-93
2022/12/05 10:48:30;;;;;;;14.88;6.53;;;;;;;;;;6208480;23;20011;-92
2022/12/05 10:50:57;;;;;;;20.05;7.85;;;;;;;;;;6182687;23;20372;-92
2022/12/05 10:53:27;;;;;;;18.50;7.38;;;;;;;;;;6184747;23;20012;-92
2022/12/05 10:55:54;;;;;;;20.55;8.00;;;;;;;;;;6207872;23;20459;-92
2022/12/05 10:58:23;;;;;;;34.83;8.85;;;;;;;;;;6208062;23;20015;-92
2022/12/05 11:00:51;;;;;;;20.20;7.57;;;;;;;;;;6207193;23;20095;-91
2022/12/05 11:03:22;;;;;;;18.58;6.53;;;;;;;;;;6208623;23;20008;-90
2022/12/05 11:05:52;;;;;;;23.33;6.78;;;;;;;;;;6206924;23;20449;-90
2022/12/05 11:08:22;;;;;;;23.50;6.43;;;;;;;;;;6210436;23;20222;-90
2022/12/05 11:10:48;;;;;;;16.75;6.78;;;;;;;;;;6208100;23;20437;-91
2022/12/05 11:13:16;;;;;;;19.45;6.78;;;;;;;;;;6207250;23;20016;-91
2022/12/05 11:15:46;;;;;;;22.08;6.10;;;;;;;;;;6207867;23;20008;-90
2022/12/05 11:18:40;;;;;;;17.30;6.72;;;;;;;;;;6207561;23;20106;-90
2022/12/05 11:21:11;;;;;;;14.95;6.95;;;;;;;;;;6202038;23;20449;-90
2022/12/05 11:23:38;;;;;;;16.88;6.72;;;;;;;;;;6206506;23;20421;-91
2022/12/05 11:26:04;;;;;;;10.43;5.35;;;;;;;;;;6183204;23;20012;-90
2022/12/05 11:28:32;;;;;;;15.45;5.63;;;;;;;;;;6207524;23;20004;-91
2022/12/05 11:31:03;;;;;;;16.67;6.50;;;;;;;;;;6207685;23;20400;-90
2022/12/05 11:33:30;;;;;;;15.63;5.88;;;;;;;;;;6207237;22;20377;-91
2022/12/05 11:36:00;;;;;;;14.85;6.20;;;;;;;;;;6205738;23;20008;-90
2022/12/05 11:38:28;;;;;;;13.75;5.13;;;;;;;;;;6207296;23;20063;-90
2022/12/05 11:40:54;;;;;;;17.23;5.90;;;;;;;;;;6181125;23;20012;-90
2022/12/05 11:43:26;;;;;;;18.15;5.28;;;;;;;;;;6207013;23;20004;-90
2022/12/05 11:46:00;;;;;;;11.70;4.68;;;;;;;;;;6206938;23;20281;-90
2022/12/05 11:48:48;;;;;;;11.80;4.80;;;;;;;;;;6207907;23;20392;-90
2022/12/05 11:51:17;;;;;;;16.15;4.63;;;;;;;;;;6206513;23;20485;-90
2022/12/05 11:54:02;;;;;;;18.10;5.40;;;;;;;;;;6207716;23;20396;-91
2022/12/05 11:56:28;;;;;;;12.52;5.32;;;;;;;;;;6208028;23;20092;-90
2022/12/05 11:59:00;;;;;;;10.27;4.57;;;;;;;;;;6207017;23;20062;-90
2022/12/05 12:01:41;;;;;;;12.45;5.32;;;;;;;;;;6208435;23;20575;-91
2022/12/05 12:04:19;;;;;;;10.85;5.38;;;;;;;;;;6205783;23;20449;-91
2022/12/05 12:07:04;;;;;;;12.75;4.95;;;;;;;;;;6207381;23;20062;-90
2022/12/05 12:09:48;;;;;;;15.30;5.40;;;;;;;;;;6206870;23;20028;-90
2022/12/05 12:12:31;;;;;;;12.05;4.82;;;;;;;;;;6205866;23;20529;-90
2022/12/05 12:15:16;;;;;;;10.27;4.25;;;;;;;;;;6207386;23;20012;-90
2022/12/05 12:17:48;;;;;;;15.35;5.28;;;;;;;;;;6207665;23;20008;-91
2022/12/05 12:20:14;;;;;;;11.52;4.45;;;;;;;;;;6204766;23;20449;-90
2022/12/05 12:22:59;;;;;;;11.95;4.90;;;;;;;;;;6206787;23;20009;-90
2022/12/05 12:25:37;;;;;;;18.50;5.07;;;;;;;;;;6207006;23;20016;-90
2022/12/05 12:28:18;;;;;;;13.90;5.18;;;;;;;;;;6206209;23;20789;-91
2022/12/05 12:30:47;;;;;;;13.32;5.65;;;;;;;;;;6207452;23;20421;-90
2022/12/05 12:33:27;;;;;;;15.70;5.50;;;;;;;;;;6206651;22;20021;-90
2022/12/05 12:35:58;;;;;;;12.40;4.60;;;;;;;;;;6208280;23;20035;-90
2022/12/05 12:38:30;;;;;;;10.70;5.15;;;;;;;;;;6206695;23;20034;-90
2022/12/05 12:41:01;;;;;;;9.98;4.82;;;;;;;;;;6204998;23;20009;-90
2022/12/05 12:43:33;;;;;;;13.82;4.65;;;;;;;;;;6205906;23;20001;-90
2022/12/05 12:46:22;;;;;;;11.35;5.20;;;;;;;;;;6208586;23;20001;-90
2022/12/05 12:48:48;;;;;;;12.65;4.63;;;;;;;;;;6208226;23;20017;-91
2022/12/05 12:51:15;;;;;;;11.43;4.97;;;;;;;;;;6206368;23;20612;-90
2022/12/05 12:54:02;;;;;;;13.73;5.00;;;;;;;;;;6183654;23;20013;-91
2022/12/05 12:56:43;;;;;;;11.82;4.53;;;;;;;;;;6208622;23;20008;-89
2022/12/05 12:59:29;;;;;;;16.73;5.18;;;;;;;;;;6208512;23;20523;-90
2022/12/05 13:01:55;;;;;;;;;;;;;;;;;;6210050;23;20533;-91
2022/12/05 13:04:24;;;;;;;5.82;3.30;;;;;;;;;;6207455;23;19907;-90
2022/12/05 13:06:50;;;;;;;6.35;3.80;;;;;;;;;;6208814;23;20005;-90
2022/12/05 13:09:26;;;;;;;13.57;4.60;;;;;;;;;;6207361;23;20012;-90
2022/12/05 13:11:54;;;;;;;23.83;4.50;;;;;;;;;;6210191;23;20426;-91
2022/12/05 13:14:24;;;;;;;13.23;5.57;;;;;;;;;;6207648;23;20373;-92
2022/12/05 13:16:51;;;;;;;10.93;4.60;;;;;;;;;;6207887;23;20004;-91
2022/12/05 13:19:29;;;;;;;14.50;4.28;;;;;;;;;;6207476;23;20015;-91
2022/12/05 13:21:57;;;;;;;13.85;4.57;;;;;;;;;;6207999;23;20087;-93
2022/12/05 13:24:26;;;;;;;10.30;4.28;;;;;;;;;;6209921;23;20098;-91
2022/12/05 13:33:29;;;;;;;8.43;3.80;;;;;;;;;;6123669;23;20079;-91
2022/12/05 13:44:29;;;;;;;9.27;4.03;;;;;;;;;;6193517;23;20015;-91
2022/12/05 13:46:55;;;;;;;11.93;3.70;;;;;;;;;;6216100;23;20004;-89
2022/12/05 13:49:43;;;;;;;15.35;3.92;;;;;;;;;;6214065;23;20492;-90
2022/12/05 13:52:13;;;;;;;11.13;3.65;;;;;;;;;;6212096;23;20015;-90
2022/12/05 13:54:49;;;;;;;4.80;2.80;;;;;;;;;;6212248;23;20012;-91
2022/12/05 13:57:53;;;;;;;10.10;4.32;;;;;;;;;;6238305;23;20011;-90
2022/12/05 14:00:22;;;;;;;9.20;3.67;;;;;;;;;;6061401;23;20010;-91
2022/12/05 14:03:01;;;;;;;12.75;3.60;;;;;;;;;;6063173;23;20038;-90
2022/12/05 14:05:38;;;;;;;15.93;3.75;;;;;;;;;;6149536;23;20014;-91
2022/12/05 14:08:22;;;;;;;17.73;6.55;;;;;;;;;;6240125;23;20503;-90
2022/12/05 14:10:51;;;;;;;11.82;3.80;;;;;;;;;;6213542;23;20517;-90
2022/12/05 14:13:17;;;;;;;13.65;4.20;;;;;;;;;;6215028;23;20703;-91
2022/12/05 14:15:45;;;;;;;12.05;3.70;;;;;;;;;;6213330;23;20835;-90
2022/12/05 14:18:16;;;;;;;8.77;3.92;;;;;;;;;;6215145;23;20004;-91
2022/12/05 14:20:47;;;;;;;17.15;4.32;;;;;;;;;;6213725;23;20428;-90
2022/12/05 14:23:27;;;;;;;17.77;4.20;;;;;;;;;;6214450;23;20008;-90
2022/12/05 14:25:59;;;;;;;9.82;4.07;;;;;;;;;;6215146;23;20000;-90
2022/12/05 14:28:51;;;;;;;14.90;4.25;;;;;;;;;;6215389;23;20000;-90
2022/12/05 14:31:20;;;;;;;13.23;4.15;;;;;;;;;;6235268;23;20007;-90
2022/12/05 14:34:02;;;;;;;8.57;4.00;;;;;;;;;;6211309;22;20025;-91
2022/12/05 14:36:30;;;;;;;10.55;3.78;;;;;;;;;;6210170;23;20488;-90
2022/12/05 14:38:56;;;;;;;11.88;3.50;;;;;;;;;;6186220;23;20012;-90
2022/12/05 14:41:25;;;;;;;11.32;4.07;;;;;;;;;;6186440;23;20020;-90
2022/12/05 14:43:55;;;;;;;16.02;3.50;;;;;;;;;;6209778;23;20042;-90
2022/12/05 14:46:29;;;;;;;13.68;4.60;;;;;;;;;;6211000;23;20410;-90
2022/12/05 14:48:55;;;;;;;10.70;4.80;;;;;;;;;;6211341;23;20429;-90
2022/12/05 14:51:30;;;;;;;10.80;3.67;;;;;;;;;;6209560;23;20009;-90
2022/12/05 14:54:02;;;;;;;10.37;3.77;;;;;;;;;;6209974;23;20353;-90
2022/12/05 14:56:29;;;;;;;6.60;3.45;;;;;;;;;;6209501;23;20730;-90
2022/12/05 14:58:55;;;;;;;21.00;3.65;;;;;;;;;;6210349;23;20011;-90
2022/12/05 15:01:23;;;;;;;15.00;4.03;;;;;;;;;;6209614;23;20000;-90
2022/12/05 15:03:52;;;;;;;12.55;4.68;;;;;;;;;;6209485;23;20032;-90
2022/12/05 15:06:20;;;;;;;10.85;4.30;;;;;;;;;;6209321;23;20009;-90
2022/12/05 15:08:47;;;;;;;15.27;4.30;;;;;;;;;;6185689;23;20076;-89
2022/12/05 15:11:27;;;;;;;11.38;4.18;;;;;;;;;;6208900;23;20004;-90
2022/12/05 15:13:56;;;;;;;15.07;3.78;;;;;;;;;;6210209;23;20001;-90
2022/12/05 15:16:22;;;;;;;14.15;3.78;;;;;;;;;;6210095;23;20433;-90
2022/12/05 15:18:53;;;;;;;14.65;4.43;;;;;;;;;;6207641;23;20400;-91
2022/12/05 15:21:28;;;;;;;10.88;4.07;;;;;;;;;;6209626;23;20009;-90
2022/12/05 15:23:54;;;;;;;11.80;3.67;;;;;;;;;;6208619;23;20100;-90